createdAt,value
2023-05-19T00:02:21.463Z,98752.03
2023-05-19T00:06:25.493Z,98756.44
2023-05-19T00:10:31.651Z,98749.44
2023-05-19T00:14:34.261Z,98753.72
2023-05-19T00:18:36.433Z,98758.03
2023-05-19T00:22:38.533Z,98761.88
2023-05-19T00:26:40.626Z,98752.53
2023-05-19T00:30:42.952Z,98747.38
2023-05-19T00:34:47.727Z,98749.13
2023-05-19T00:38:51.274Z,98749.22
2023-05-19T00:42:53.405Z,98745.59
2023-05-19T00:46:55.782Z,98737.88
2023-05-19T00:51:04.007Z,98739.69
2023-05-19T00:55:08.040Z,98743.41
2023-05-19T00:59:10.232Z,98737.34
2023-05-19T01:03:12.427Z,98740.88
2023-05-19T01:07:16.363Z,98729.56
2023-05-19T01:11:18.465Z,98740.06
2023-05-19T01:15:20.815Z,98737.50
2023-05-19T01:19:46.819Z,98727.16
2023-05-19T01:24:04.133Z,98729.75
2023-05-19T01:28:26.040Z,98730.72
2023-05-19T01:32:30.289Z,98729.03
2023-05-19T01:36:33.796Z,98726.53
2023-05-19T01:40:38.054Z,98734.22
2023-05-19T01:44:40.557Z,98734.22
2023-05-19T01:48:44.673Z,98724.75
2023-05-19T01:52:46.775Z,98734.31
2023-05-19T01:57:07.267Z,98729.22
2023-05-19T02:01:33.940Z,98736.97
2023-05-19T02:05:51.125Z,98739.59
2023-05-19T02:10:04.390Z,98739.56
2023-05-19T02:14:20.365Z,98735.28
2023-05-19T02:18:25.073Z,98741.34
2023-05-19T02:22:27.226Z,98735.22
2023-05-19T02:26:29.261Z,98736.16
2023-05-19T02:30:32.017Z,98736.19
2023-05-19T02:34:35.751Z,98730.13
2023-05-19T02:38:39.976Z,98732.72
2023-05-19T02:42:42.037Z,98731.00
2023-05-19T02:46:44.543Z,98719.78
2023-05-19T02:50:46.615Z,98718.03
2023-05-19T02:54:48.647Z,98714.59
2023-05-19T02:58:50.709Z,98711.16
2023-05-19T03:02:53.031Z,98713.84
2023-05-19T03:06:55.606Z,98719.94
2023-05-19T03:10:57.669Z,98712.22
2023-05-19T03:15:00.734Z,98707.94
2023-05-19T03:19:04.102Z,98712.28
2023-05-19T03:23:06.492Z,98716.59
2023-05-19T03:27:08.981Z,98720.97
2023-05-19T03:31:11.116Z,98718.38
2023-05-19T03:35:14.186Z,98722.66
2023-05-19T03:39:16.906Z,98727.84
2023-05-19T03:43:22.032Z,98717.47
2023-05-19T03:47:31.690Z,98722.69
2023-05-19T03:51:52.117Z,98723.56
2023-05-19T03:56:02.066Z,98723.50
2023-05-19T04:00:06.157Z,98722.53
2023-05-19T04:04:14.252Z,98717.22
2023-05-19T04:08:16.330Z,98717.94
2023-05-19T04:12:18.375Z,98721.22
2023-05-19T04:16:21.269Z,98725.25
2023-05-19T04:20:23.449Z,98718.34
2023-05-19T04:24:26.177Z,98714.41
2023-05-19T04:28:28.949Z,98714.84
2023-05-19T04:32:32.397Z,98704.13
2023-05-19T04:36:34.895Z,98706.19
2023-05-19T04:40:42.247Z,98710.13
2023-05-19T04:44:44.358Z,98712.75
2023-05-19T04:48:46.690Z,98705.41
2023-05-19T04:52:49.036Z,98711.88
2023-05-19T04:56:51.142Z,98710.22
2023-05-19T05:01:00.334Z,98711.41
2023-05-19T05:05:04.288Z,98712.25
2023-05-19T05:09:06.825Z,98716.06
2023-05-19T05:13:11.205Z,98711.31
2023-05-19T05:17:14.494Z,98705.00
2023-05-19T05:21:17.905Z,98706.00
2023-05-19T05:25:20.963Z,98703.16
2023-05-19T05:29:24.057Z,98696.94
2023-05-19T05:33:27.333Z,98693.44
2023-05-19T05:37:30.699Z,98691.19
2023-05-19T05:41:35.482Z,98690.53
2023-05-19T05:45:42.961Z,98698.53
2023-05-19T05:49:48.195Z,98690.06
2023-05-19T05:53:55.336Z,98693.44
2023-05-19T05:58:04.902Z,98687.59
2023-05-19T06:02:07.140Z,98701.22
2023-05-19T06:06:11.029Z,98693.81
2023-05-19T06:10:13.202Z,98702.59
2023-05-19T06:14:15.594Z,98691.19
2023-05-19T06:18:43.697Z,98687.31
2023-05-19T06:22:45.795Z,98695.69
2023-05-19T06:26:49.497Z,98692.28
2023-05-19T06:30:53.264Z,98688.38
2023-05-19T06:35:02.489Z,98692.91
2023-05-19T06:39:05.638Z,98688.81
2023-05-19T06:43:08.209Z,98693.75
2023-05-19T06:47:30.548Z,98691.22
2023-05-19T06:51:32.783Z,98687.31
2023-05-19T06:55:39.194Z,98681.06
2023-05-19T06:59:47.359Z,98681.28
2023-05-19T07:03:50.408Z,98683.91
2023-05-19T07:07:52.689Z,98681.41
2023-05-19T07:11:58.981Z,98670.63
2023-05-19T07:16:01.146Z,98671.41
2023-05-19T07:20:06.817Z,98678.13
2023-05-19T07:24:09.076Z,98680.78
2023-05-19T07:28:11.283Z,98686.19
2023-05-19T07:32:13.480Z,98674.16
2023-05-19T07:36:15.806Z,98678.47
2023-05-19T07:40:18.287Z,98666.13
2023-05-19T07:44:20.385Z,98655.44
2023-05-19T07:48:24.551Z,98656.59
2023-05-19T07:52:26.808Z,98649.03
2023-05-19T07:56:29.576Z,98650.19
2023-05-19T08:00:31.966Z,98654.53
2023-05-19T08:04:34.292Z,98645.34
2023-05-19T08:08:36.786Z,98649.03
2023-05-19T08:12:38.953Z,98644.91
2023-05-19T08:16:42.958Z,98648.34
2023-05-19T08:20:46.297Z,98650.97
2023-05-19T08:24:49.729Z,98653.41
2023-05-19T08:28:51.806Z,98647.03
2023-05-19T08:32:53.915Z,98639.75
2023-05-19T08:36:57.702Z,98637.41
2023-05-19T08:40:59.898Z,98630.50
2023-05-19T08:45:02.577Z,98632.91
2023-05-19T08:49:16.607Z,98631.94
2023-05-19T08:53:33.026Z,98624.13
2023-05-19T08:57:38.226Z,98609.47
2023-05-19T09:01:42.821Z,98607.84
2023-05-19T09:05:46.422Z,98602.38
2023-05-19T09:09:49.142Z,98606.25
2023-05-19T09:13:51.380Z,98602.03
2023-05-19T09:18:07.157Z,98591.81
2023-05-19T09:22:09.407Z,98593.94
2023-05-19T09:26:11.642Z,98587.63
2023-05-19T09:30:14.764Z,98581.66
2023-05-19T09:34:17.493Z,98578.19
2023-05-19T09:38:20.104Z,98581.66
2023-05-19T09:42:27.031Z,98580.81
2023-05-19T09:46:30.080Z,98580.19
2023-05-19T09:50:32.783Z,98572.34
2023-05-19T09:54:34.923Z,98562.00
2023-05-19T09:58:37.374Z,98556.78
2023-05-19T10:02:47.315Z,98554.91
2023-05-19T10:06:53.549Z,98548.56
2023-05-19T10:10:56.699Z,98554.72
2023-05-19T10:14:59.434Z,98539.09
2023-05-19T10:19:02.595Z,98552.34
2023-05-19T10:23:05.377Z,98546.66
2023-05-19T10:27:11.919Z,98535.13
2023-05-19T10:31:19.361Z,98543.44
2023-05-19T10:35:39.231Z,98531.66
2023-05-19T10:39:43.651Z,98532.03
2023-05-19T10:44:00.060Z,98532.59
2023-05-19T10:48:02.303Z,98533.72
2023-05-19T10:52:05.792Z,98527.50
2023-05-19T10:56:10.105Z,98528.25
2023-05-19T11:00:31.834Z,98522.69
2023-05-19T11:04:50.351Z,98520.31
2023-05-19T11:09:00.877Z,98526.47
2023-05-19T11:13:06.577Z,98522.69
2023-05-19T11:17:14.307Z,98524.13
2023-05-19T11:21:16.718Z,98518.13
2023-05-19T11:25:44.538Z,98507.03
2023-05-19T11:29:48.422Z,98514.03
2023-05-19T11:33:50.709Z,98509.22
2023-05-19T11:37:54.552Z,98500.16
2023-05-19T11:41:56.651Z,98498.06
2023-05-19T11:45:59.362Z,98500.00
2023-05-19T11:50:01.779Z,98496.63
2023-05-19T11:54:04.458Z,98512.22
2023-05-19T11:58:06.532Z,98489.16
2023-05-19T12:02:26.102Z,98491.09
2023-05-19T12:06:29.869Z,98494.91
2023-05-19T12:10:33.852Z,98495.19
2023-05-19T12:14:37.527Z,98479.31
2023-05-19T12:18:40.409Z,98477.44
2023-05-19T12:22:43.290Z,98482.81
2023-05-19T12:26:45.443Z,98475.59
2023-05-19T12:30:51.751Z,98461.72
2023-05-19T12:34:56.046Z,98480.56
2023-05-19T12:38:58.205Z,98468.00
2023-05-19T12:43:00.357Z,98471.69
2023-05-19T12:47:05.018Z,98471.72
2023-05-19T12:51:07.380Z,98470.03
2023-05-19T12:55:11.609Z,98466.78
2023-05-19T12:59:27.160Z,98466.19
2023-05-19T13:03:43.863Z,98465.84
2023-05-19T13:08:05.406Z,98464.91
2023-05-19T13:12:07.634Z,98464.19
2023-05-19T13:16:09.662Z,98456.19
2023-05-19T13:20:13.002Z,98451.44
2023-05-19T13:24:15.065Z,98456.94
2023-05-19T13:28:17.167Z,98449.50
2023-05-19T13:32:19.232Z,98445.13
2023-05-19T13:36:21.260Z,98452.75
2023-05-19T13:40:24.111Z,98444.88
2023-05-19T13:44:26.195Z,98442.75
2023-05-19T13:48:28.246Z,98438.00
2023-05-19T13:52:30.682Z,98434.50
2023-05-19T13:56:32.760Z,98438.13
2023-05-19T14:00:36.325Z,98449.09
2023-05-19T14:04:39.725Z,98441.75
2023-05-19T14:08:42.297Z,98455.75
2023-05-19T14:13:08.033Z,98442.91
2023-05-19T14:17:06.423Z,98438.25
2023-05-19T14:21:08.752Z,98432.91
2023-05-19T14:25:10.987Z,98443.16
2023-05-19T14:29:13.160Z,98427.53
2023-05-19T14:33:15.237Z,98433.00
2023-05-19T14:37:17.364Z,98439.81
2023-05-19T14:41:19.411Z,98434.72
2023-05-19T14:45:21.548Z,98434.94
2023-05-19T14:49:23.643Z,98433.88
2023-05-19T14:53:25.849Z,98435.16
2023-05-19T14:57:27.963Z,98435.00
2023-05-19T15:01:30.212Z,98417.00
2023-05-19T15:05:32.336Z,98411.94
2023-05-19T15:09:34.421Z,98415.28
2023-05-19T15:13:36.457Z,98412.94
2023-05-19T15:17:38.799Z,98417.19
2023-05-19T15:21:41.163Z,98414.56
2023-05-19T15:25:45.402Z,98407.03
2023-05-19T15:29:47.457Z,98418.63
2023-05-19T15:33:49.945Z,98413.63
2023-05-19T15:37:52.120Z,98408.50
2023-05-19T15:41:54.134Z,98403.78
2023-05-19T15:45:56.214Z,98415.75
2023-05-19T15:49:58.454Z,98405.22
2023-05-19T15:54:01.652Z,98408.75
2023-05-19T15:58:03.723Z,98409.72
2023-05-19T16:02:06.033Z,98409.00
2023-05-19T16:06:08.088Z,98410.34
2023-05-19T16:10:10.213Z,98401.63
2023-05-19T16:14:12.336Z,98396.00
2023-05-19T16:18:15.925Z,98380.06
2023-05-19T16:22:18.225Z,98381.31
2023-05-19T16:26:21.554Z,98378.97
2023-05-19T16:30:24.615Z,98386.63
2023-05-19T16:34:28.482Z,98379.63
2023-05-19T16:38:30.865Z,98390.84
2023-05-19T16:42:32.905Z,98394.25
2023-05-19T16:46:35.312Z,98380.00
2023-05-19T16:50:37.630Z,98383.41
2023-05-19T16:54:39.957Z,98377.06
2023-05-19T16:58:42.010Z,98375.91
2023-05-19T17:02:44.246Z,98391.97
2023-05-19T17:06:46.415Z,98388.63
2023-05-19T17:10:48.441Z,98387.94
2023-05-19T17:14:52.070Z,98389.38
2023-05-19T17:18:54.188Z,98394.50
2023-05-19T17:22:56.530Z,98389.41
2023-05-19T17:26:59.882Z,98399.47
2023-05-19T17:31:08.540Z,98398.78
2023-05-19T17:35:10.616Z,98406.94
2023-05-19T17:39:12.664Z,98407.69
2023-05-19T17:43:14.705Z,98414.50
2023-05-19T17:47:16.716Z,98405.97
2023-05-19T17:51:18.972Z,98408.25
2023-05-19T17:55:21.423Z,98407.81
2023-05-19T17:59:23.785Z,98412.94
2023-05-19T18:03:26.520Z,98408.38
2023-05-19T18:07:29.215Z,98414.75
2023-05-19T18:11:31.314Z,98410.78
2023-05-19T18:15:33.583Z,98406.41
2023-05-19T18:19:35.730Z,98413.25
2023-05-19T18:23:37.782Z,98419.94
2023-05-19T18:27:39.871Z,98428.25
2023-05-19T18:31:42.010Z,98416.50
2023-05-19T18:35:44.098Z,98420.69
2023-05-19T18:39:46.752Z,98429.13
2023-05-19T18:43:48.762Z,98423.50
2023-05-19T18:47:50.850Z,98424.97
2023-05-19T18:51:52.933Z,98424.75
2023-05-19T18:55:55.016Z,98431.56
2023-05-19T18:59:57.037Z,98427.78
2023-05-19T19:03:59.600Z,98418.81
2023-05-19T19:08:05.513Z,98430.22
2023-05-19T19:12:07.575Z,98432.03
2023-05-19T19:16:09.628Z,98437.16
2023-05-19T19:20:12.255Z,98450.97
2023-05-19T19:24:14.362Z,98452.38
2023-05-19T19:28:16.394Z,98453.50
2023-05-19T19:32:18.437Z,98460.78
2023-05-19T19:36:20.465Z,98460.25
2023-05-19T19:40:22.520Z,98452.69
2023-05-19T19:44:24.611Z,98449.59
2023-05-19T19:48:27.852Z,98454.59
2023-05-19T19:52:29.867Z,98449.56
2023-05-19T19:56:32.000Z,98456.06
2023-05-19T20:00:34.391Z,98451.88
2023-05-19T20:04:36.758Z,98450.00
2023-05-19T20:08:38.820Z,98454.84
2023-05-19T20:12:41.524Z,98453.38
2023-05-19T20:16:43.743Z,98448.41
2023-05-19T20:20:45.884Z,98449.31
2023-05-19T20:24:47.936Z,98441.50
2023-05-19T20:28:49.996Z,98455.50
2023-05-19T20:32:52.192Z,98449.25
2023-05-19T20:36:54.322Z,98454.47
2023-05-19T20:40:56.485Z,98451.19
2023-05-19T20:44:59.073Z,98452.31
2023-05-19T20:49:01.263Z,98455.16
2023-05-19T20:53:03.343Z,98457.28
2023-05-19T20:57:09.034Z,98459.19
2023-05-19T21:01:11.300Z,98460.38
2023-05-19T21:05:18.883Z,98459.94
2023-05-19T21:09:21.939Z,98456.16
2023-05-19T21:13:24.294Z,98446.09
2023-05-19T21:17:26.792Z,98448.91
2023-05-19T21:21:29.009Z,98463.13
2023-05-19T21:25:31.685Z,98463.41
2023-05-19T21:29:33.820Z,98470.34
2023-05-19T21:33:35.939Z,98474.19
2023-05-19T21:37:38.033Z,98463.81
2023-05-19T21:41:40.060Z,98464.63
2023-05-19T21:45:42.142Z,98461.19
2023-05-19T21:49:44.213Z,98465.50
2023-05-19T21:53:49.358Z,98460.53
2023-05-19T21:57:51.447Z,98457.28
2023-05-19T22:01:53.790Z,98462.31
2023-05-19T22:05:56.285Z,98458.09
2023-05-19T22:09:58.379Z,98460.97
2023-05-19T22:14:00.416Z,98461.72
2023-05-19T22:18:02.564Z,98459.81
2023-05-19T22:22:12.977Z,98454.41
2023-05-19T22:26:16.165Z,98456.13
2023-05-19T22:30:18.337Z,98459.72
2023-05-19T22:34:20.588Z,98458.91
2023-05-19T22:38:22.687Z,98457.19
2023-05-19T22:42:24.791Z,98451.56
2023-05-19T22:46:27.053Z,98446.31
2023-05-19T22:50:29.207Z,98445.31
2023-05-19T22:54:31.472Z,98449.59
2023-05-19T22:58:33.690Z,98437.13
2023-05-19T23:02:35.891Z,98436.97
2023-05-19T23:06:37.952Z,98443.66
2023-05-19T23:10:39.982Z,98434.72
2023-05-19T23:14:42.039Z,98438.00
2023-05-19T23:18:44.275Z,98444.81
2023-05-19T23:22:46.601Z,98431.09
2023-05-19T23:26:48.667Z,98420.59
2023-05-19T23:30:53.412Z,98426.75
2023-05-19T23:34:55.538Z,98426.06
2023-05-19T23:38:57.586Z,98421.66
2023-05-19T23:42:59.629Z,98421.44
2023-05-19T23:47:01.826Z,98416.25
2023-05-19T23:51:04.051Z,98422.34
2023-05-19T23:55:07.388Z,98416.03
2023-05-19T23:59:09.463Z,98415.25
